sensor_id;sensor_type;location;lat;lon;timestamp;P1;durP1;ratioP1;P2;durP2;ratioP2
51438;SDS011;38816;51.142;-0.974;2023-07-30T00:01:05;71.75;;;66.40;;
51438;SDS011;38816;51.142;-0.974;2023-07-30T00:03:31;71.90;;;66.65;;
51438;SDS011;38816;51.142;-0.974;2023-07-30T00:05:56;67.20;;;61.97;;
51438;SDS011;38816;51.142;-0.974;2023-07-30T00:08:22;75.25;;;69.43;;
51438;SDS011;38816;51.142;-0.974;2023-07-30T00:10:48;63.63;;;58.90;;
51438;SDS011;38816;51.142;-0.974;2023-07-30T00:13:14;76.50;;;70.55;;
51438;SDS011;38816;51.142;-0.974;2023-07-30T00:15:39;72.65;;;66.93;;
51438;SDS011;38816;51.142;-0.974;2023-07-30T00:18:05;71.57;;;66.30;;
51438;SDS011;38816;51.142;-0.974;2023-07-30T00:20:30;73.22;;;67.85;;
51438;SDS011;38816;51.142;-0.974;2023-07-30T00:22:56;62.95;;;57.85;;
51438;SDS011;38816;51.142;-0.974;2023-07-30T00:25:21;68.47;;;63.53;;
51438;SDS011;38816;51.142;-0.974;2023-07-30T00:27:47;66.60;;;61.90;;
51438;SDS011;38816;51.142;-0.974;2023-07-30T00:30:13;69.05;;;63.88;;
51438;SDS011;38816;51.142;-0.974;2023-07-30T00:32:38;65.88;;;61.10;;
51438;SDS011;38816;51.142;-0.974;2023-07-30T00:35:08;66.97;;;62.20;;
51438;SDS011;38816;51.142;-0.974;2023-07-30T00:37:34;71.95;;;66.75;;
51438;SDS011;38816;51.142;-0.974;2023-07-30T00:39:59;64.30;;;59.50;;
51438;SDS011;38816;51.142;-0.974;2023-07-30T00:42:25;66.68;;;61.58;;
51438;SDS011;38816;51.142;-0.974;2023-07-30T00:44:50;67.75;;;62.75;;
51438;SDS011;38816;51.142;-0.974;2023-07-30T00:47:15;71.78;;;66.18;;
51438;SDS011;38816;51.142;-0.974;2023-07-30T00:49:41;67.35;;;62.63;;
51438;SDS011;38816;51.142;-0.974;2023-07-30T00:52:07;70.70;;;65.78;;
51438;SDS011;38816;51.142;-0.974;2023-07-30T00:54:33;73.05;;;67.35;;
51438;SDS011;38816;51.142;-0.974;2023-07-30T00:56:59;76.78;;;71.38;;
51438;SDS011;38816;51.142;-0.974;2023-07-30T00:59:25;82.38;;;76.68;;
51438;SDS011;38816;51.142;-0.974;2023-07-30T01:01:51;85.18;;;79.20;;
51438;SDS011;38816;51.142;-0.974;2023-07-30T01:04:18;80.85;;;75.07;;
51438;SDS011;38816;51.142;-0.974;2023-07-30T01:06:43;84.07;;;77.80;;
51438;SDS011;38816;51.142;-0.974;2023-07-30T01:09:10;78.38;;;72.75;;
51438;SDS011;38816;51.142;-0.974;2023-07-30T01:11:36;85.28;;;79.43;;
51438;SDS011;38816;51.142;-0.974;2023-07-30T01:14:03;86.35;;;80.10;;
51438;SDS011;38816;51.142;-0.974;2023-07-30T01:16:30;85.43;;;79.63;;
51438;SDS011;38816;51.142;-0.974;2023-07-30T01:18:56;95.45;;;88.85;;
51438;SDS011;38816;51.142;-0.974;2023-07-30T01:21:24;82.38;;;76.82;;
51438;SDS011;38816;51.142;-0.974;2023-07-30T01:23:49;90.35;;;84.18;;
51438;SDS011;38816;51.142;-0.974;2023-07-30T01:26:22;92.55;;;85.60;;
51438;SDS011;38816;51.142;-0.974;2023-07-30T01:28:54;82.80;;;76.80;;
51438;SDS011;38816;51.142;-0.974;2023-07-30T01:31:24;76.90;;;71.47;;
51438;SDS011;38816;51.142;-0.974;2023-07-30T01:33:52;77.07;;;71.47;;
51438;SDS011;38816;51.142;-0.974;2023-07-30T01:36:19;86.93;;;80.88;;
51438;SDS011;38816;51.142;-0.974;2023-07-30T01:38:46;80.57;;;74.95;;
51438;SDS011;38816;51.142;-0.974;2023-07-30T01:41:14;77.60;;;71.88;;
51438;SDS011;38816;51.142;-0.974;2023-07-30T01:43:39;76.57;;;71.25;;
51438;SDS011;38816;51.142;-0.974;2023-07-30T01:46:05;67.45;;;62.45;;
51438;SDS011;38816;51.142;-0.974;2023-07-30T01:48:30;68.35;;;63.10;;
51438;SDS011;38816;51.142;-0.974;2023-07-30T01:50:56;72.78;;;67.82;;
51438;SDS011;38816;51.142;-0.974;2023-07-30T01:53:21;71.18;;;66.20;;
51438;SDS011;38816;51.142;-0.974;2023-07-30T01:55:47;70.40;;;65.47;;
51438;SDS011;38816;51.142;-0.974;2023-07-30T01:58:12;67.22;;;62.47;;
51438;SDS011;38816;51.142;-0.974;2023-07-30T02:00:38;71.00;;;66.28;;
51438;SDS011;38816;51.142;-0.974;2023-07-30T02:03:04;65.25;;;60.30;;
51438;SDS011;38816;51.142;-0.974;2023-07-30T02:05:30;66.95;;;62.38;;
51438;SDS011;38816;51.142;-0.974;2023-07-30T02:07:55;71.40;;;66.50;;
51438;SDS011;38816;51.142;-0.974;2023-07-30T02:10:21;69.05;;;63.90;;
51438;SDS011;38816;51.142;-0.974;2023-07-30T02:12:46;70.90;;;66.05;;
51438;SDS011;38816;51.142;-0.974;2023-07-30T02:15:12;70.82;;;65.60;;
51438;SDS011;38816;51.142;-0.974;2023-07-30T02:17:37;63.65;;;59.17;;
51438;SDS011;38816;51.142;-0.974;2023-07-30T02:20:02;65.60;;;61.10;;
51438;SDS011;38816;51.142;-0.974;2023-07-30T02:22:28;93.85;;;87.30;;
51438;SDS011;38816;51.142;-0.974;2023-07-30T02:24:54;78.80;;;73.32;;
51438;SDS011;38816;51.142;-0.974;2023-07-30T02:27:22;74.95;;;69.80;;
51438;SDS011;38816;51.142;-0.974;2023-07-30T02:29:47;83.32;;;77.68;;
51438;SDS011;38816;51.142;-0.974;2023-07-30T02:32:13;80.47;;;74.47;;
51438;SDS011;38816;51.142;-0.974;2023-07-30T02:34:38;78.47;;;73.18;;
51438;SDS011;38816;51.142;-0.974;2023-07-30T02:37:06;73.22;;;68.03;;
51438;SDS011;38816;51.142;-0.974;2023-07-30T02:39:32;72.68;;;67.47;;
51438;SDS011;38816;51.142;-0.974;2023-07-30T02:41:57;71.88;;;66.82;;
51438;SDS011;38816;51.142;-0.974;2023-07-30T02:44:23;76.10;;;71.00;;
51438;SDS011;38816;51.142;-0.974;2023-07-30T02:46:49;76.18;;;70.72;;
51438;SDS011;38816;51.142;-0.974;2023-07-30T02:49:14;75.97;;;70.57;;
51438;SDS011;38816;51.142;-0.974;2023-07-30T02:51:39;72.00;;;67.28;;
51438;SDS011;38816;51.142;-0.974;2023-07-30T02:54:05;72.65;;;67.45;;
51438;SDS011;38816;51.142;-0.974;2023-07-30T02:56:32;72.53;;;67.47;;
51438;SDS011;38816;51.142;-0.974;2023-07-30T02:58:58;65.03;;;60.22;;
51438;SDS011;38816;51.142;-0.974;2023-07-30T03:01:24;66.35;;;61.55;;
51438;SDS011;38816;51.142;-0.974;2023-07-30T03:03:50;61.92;;;57.53;;
51438;SDS011;38816;51.142;-0.974;2023-07-30T03:06:15;62.15;;;57.42;;
51438;SDS011;38816;51.142;-0.974;2023-07-30T03:08:45;62.08;;;57.63;;
51438;SDS011;38816;51.142;-0.974;2023-07-30T03:11:10;54.67;;;50.97;;
51438;SDS011;38816;51.142;-0.974;2023-07-30T03:13:35;54.95;;;50.88;;
51438;SDS011;38816;51.142;-0.974;2023-07-30T03:16:01;53.85;;;49.90;;
51438;SDS011;38816;51.142;-0.974;2023-07-30T03:18:26;55.08;;;50.95;;
51438;SDS011;38816;51.142;-0.974;2023-07-30T03:20:57;57.45;;;53.25;;
51438;SDS011;38816;51.142;-0.974;2023-07-30T03:23:26;56.40;;;52.00;;
51438;SDS011;38816;51.142;-0.974;2023-07-30T03:25:52;53.88;;;49.70;;
51438;SDS011;38816;51.142;-0.974;2023-07-30T03:28:17;55.08;;;50.90;;
51438;SDS011;38816;51.142;-0.974;2023-07-30T03:30:42;55.90;;;51.83;;
51438;SDS011;38816;51.142;-0.974;2023-07-30T03:33:08;52.75;;;48.55;;
51438;SDS011;38816;51.142;-0.974;2023-07-30T03:35:34;68.57;;;63.60;;
51438;SDS011;38816;51.142;-0.974;2023-07-30T03:37:59;54.90;;;50.95;;
51438;SDS011;38816;51.142;-0.974;2023-07-30T03:40:24;55.53;;;51.53;;
51438;SDS011;38816;51.142;-0.974;2023-07-30T03:42:50;63.10;;;58.22;;
51438;SDS011;38816;51.142;-0.974;2023-07-30T03:45:16;56.08;;;52.13;;
51438;SDS011;38816;51.142;-0.974;2023-07-30T03:47:41;56.83;;;52.60;;
51438;SDS011;38816;51.142;-0.974;2023-07-30T03:50:07;53.78;;;49.47;;
51438;SDS011;38816;51.142;-0.974;2023-07-30T03:52:33;57.42;;;53.13;;
51438;SDS011;38816;51.142;-0.974;2023-07-30T03:54:58;56.63;;;52.38;;
51438;SDS011;38816;51.142;-0.974;2023-07-30T03:57:23;53.25;;;49.08;;
51438;SDS011;38816;51.142;-0.974;2023-07-30T03:59:49;51.67;;;47.63;;
51438;SDS011;38816;51.142;-0.974;2023-07-30T04:02:14;51.00;;;46.88;;
51438;SDS011;38816;51.142;-0.974;2023-07-30T04:04:40;53.42;;;49.22;;
51438;SDS011;38816;51.142;-0.974;2023-07-30T04:07:08;53.92;;;50.00;;
51438;SDS011;38816;51.142;-0.974;2023-07-30T04:09:34;53.67;;;49.83;;
51438;SDS011;38816;51.142;-0.974;2023-07-30T04:11:59;59.65;;;54.00;;
51438;SDS011;38816;51.142;-0.974;2023-07-30T04:14:24;52.78;;;49.10;;
51438;SDS011;38816;51.142;-0.974;2023-07-30T04:16:50;54.80;;;50.63;;
51438;SDS011;38816;51.142;-0.974;2023-07-30T04:19:15;54.50;;;50.00;;
51438;SDS011;38816;51.142;-0.974;2023-07-30T04:21:41;56.55;;;52.10;;
51438;SDS011;38816;51.142;-0.974;2023-07-30T04:24:06;54.85;;;50.72;;
51438;SDS011;38816;51.142;-0.974;2023-07-30T04:26:32;56.03;;;51.67;;
51438;SDS011;38816;51.142;-0.974;2023-07-30T04:28:57;56.08;;;51.63;;
51438;SDS011;38816;51.142;-0.974;2023-07-30T04:31:23;54.88;;;50.75;;
51438;SDS011;38816;51.142;-0.974;2023-07-30T04:33:48;53.88;;;49.65;;
51438;SDS011;38816;51.142;-0.974;2023-07-30T04:36:13;54.90;;;50.55;;
51438;SDS011;38816;51.142;-0.974;2023-07-30T04:38:39;52.72;;;48.40;;
51438;SDS011;38816;51.142;-0.974;2023-07-30T04:41:04;49.42;;;44.97;;
51438;SDS011;38816;51.142;-0.974;2023-07-30T04:43:30;50.40;;;46.75;;
51438;SDS011;38816;51.142;-0.974;2023-07-30T04:45:55;51.28;;;47.08;;
51438;SDS011;38816;51.142;-0.974;2023-07-30T04:48:20;53.88;;;49.55;;
51438;SDS011;38816;51.142;-0.974;2023-07-30T04:50:46;54.53;;;50.35;;
51438;SDS011;38816;51.142;-0.974;2023-07-30T04:53:11;52.65;;;48.88;;
51438;SDS011;38816;51.142;-0.974;2023-07-30T04:55:37;52.28;;;48.13;;
51438;SDS011;38816;51.142;-0.974;2023-07-30T04:58:02;48.97;;;45.00;;
51438;SDS011;38816;51.142;-0.974;2023-07-30T05:00:28;55.35;;;51.00;;
51438;SDS011;38816;51.142;-0.974;2023-07-30T05:02:54;51.78;;;47.58;;
51438;SDS011;38816;51.142;-0.974;2023-07-30T05:05:19;54.20;;;50.38;;
51438;SDS011;38816;51.142;-0.974;2023-07-30T05:07:45;50.40;;;46.60;;
51438;SDS011;38816;51.142;-0.974;2023-07-30T05:10:10;50.75;;;46.90;;
51438;SDS011;38816;51.142;-0.974;2023-07-30T05:12:36;54.08;;;49.90;;
51438;SDS011;38816;51.142;-0.974;2023-07-30T05:15:01;54.17;;;49.47;;
51438;SDS011;38816;51.142;-0.974;2023-07-30T05:17:28;56.95;;;52.60;;
51438;SDS011;38816;51.142;-0.974;2023-07-30T05:19:54;51.65;;;47.42;;
51438;SDS011;38816;51.142;-0.974;2023-07-30T05:22:19;51.70;;;47.65;;
51438;SDS011;38816;51.142;-0.974;2023-07-30T05:24:45;55.63;;;51.03;;
51438;SDS011;38816;51.142;-0.974;2023-07-30T05:27:10;50.42;;;46.35;;
51438;SDS011;38816;51.142;-0.974;2023-07-30T05:29:36;52.63;;;48.53;;
51438;SDS011;38816;51.142;-0.974;2023-07-30T05:32:01;55.13;;;50.70;;
51438;SDS011;38816;51.142;-0.974;2023-07-30T05:34:27;55.63;;;51.22;;
51438;SDS011;38816;51.142;-0.974;2023-07-30T05:36:52;53.83;;;49.72;;
51438;SDS011;38816;51.142;-0.974;2023-07-30T05:39:17;57.42;;;52.53;;
51438;SDS011;38816;51.142;-0.974;2023-07-30T05:41:43;51.33;;;47.58;;
51438;SDS011;38816;51.142;-0.974;2023-07-30T05:44:08;55.85;;;51.22;;
51438;SDS011;38816;51.142;-0.974;2023-07-30T05:46:34;53.63;;;49.42;;
51438;SDS011;38816;51.142;-0.974;2023-07-30T05:48:59;54.17;;;50.08;;
51438;SDS011;38816;51.142;-0.974;2023-07-30T05:51:25;58.85;;;54.60;;
51438;SDS011;38816;51.142;-0.974;2023-07-30T05:53:50;55.50;;;50.97;;
51438;SDS011;38816;51.142;-0.974;2023-07-30T05:56:16;56.05;;;51.65;;
51438;SDS011;38816;51.142;-0.974;2023-07-30T05:58:43;52.92;;;48.75;;
51438;SDS011;38816;51.142;-0.974;2023-07-30T06:01:09;48.58;;;44.65;;
51438;SDS011;38816;51.142;-0.974;2023-07-30T06:03:34;54.05;;;49.58;;
51438;SDS011;38816;51.142;-0.974;2023-07-30T06:06:01;55.33;;;50.92;;
51438;SDS011;38816;51.142;-0.974;2023-07-30T06:08:27;77.90;;;71.57;;
51438;SDS011;38816;51.142;-0.974;2023-07-30T06:10:52;52.10;;;48.03;;
51438;SDS011;38816;51.142;-0.974;2023-07-30T06:13:18;55.38;;;51.28;;
51438;SDS011;38816;51.142;-0.974;2023-07-30T06:15:43;61.40;;;56.70;;
51438;SDS011;38816;51.142;-0.974;2023-07-30T06:18:09;53.60;;;48.90;;
51438;SDS011;38816;51.142;-0.974;2023-07-30T06:20:34;57.67;;;53.05;;
51438;SDS011;38816;51.142;-0.974;2023-07-30T06:23:00;49.55;;;45.63;;
51438;SDS011;38816;51.142;-0.974;2023-07-30T06:25:25;55.58;;;51.22;;
51438;SDS011;38816;51.142;-0.974;2023-07-30T06:27:51;54.00;;;49.72;;
51438;SDS011;38816;51.142;-0.974;2023-07-30T06:30:16;68.80;;;63.47;;
51438;SDS011;38816;51.142;-0.974;2023-07-30T06:32:42;62.35;;;57.75;;
51438;SDS011;38816;51.142;-0.974;2023-07-30T06:35:07;66.88;;;61.47;;
51438;SDS011;38816;51.142;-0.974;2023-07-30T06:37:33;63.38;;;58.72;;
51438;SDS011;38816;51.142;-0.974;2023-07-30T06:39:59;63.58;;;58.80;;
51438;SDS011;38816;51.142;-0.974;2023-07-30T06:42:24;62.28;;;57.78;;
51438;SDS011;38816;51.142;-0.974;2023-07-30T06:44:50;63.05;;;58.38;;
51438;SDS011;38816;51.142;-0.974;2023-07-30T06:47:15;67.10;;;61.85;;
51438;SDS011;38816;51.142;-0.974;2023-07-30T06:49:41;69.43;;;64.47;;
51438;SDS011;38816;51.142;-0.974;2023-07-30T06:52:06;79.00;;;73.13;;
51438;SDS011;38816;51.142;-0.974;2023-07-30T06:54:32;71.70;;;65.93;;
51438;SDS011;38816;51.142;-0.974;2023-07-30T06:56:57;72.15;;;66.72;;
51438;SDS011;38816;51.142;-0.974;2023-07-30T06:59:23;78.28;;;72.55;;
51438;SDS011;38816;51.142;-0.974;2023-07-30T07:01:48;79.80;;;73.97;;
51438;SDS011;38816;51.142;-0.974;2023-07-30T07:04:14;72.85;;;67.75;;
51438;SDS011;38816;51.142;-0.974;2023-07-30T07:06:40;84.78;;;79.00;;
51438;SDS011;38816;51.142;-0.974;2023-07-30T07:09:05;92.10;;;85.38;;
51438;SDS011;38816;51.142;-0.974;2023-07-30T07:11:31;79.80;;;74.03;;
51438;SDS011;38816;51.142;-0.974;2023-07-30T07:13:56;87.60;;;81.28;;
51438;SDS011;38816;51.142;-0.974;2023-07-30T07:16:22;90.05;;;84.05;;
51438;SDS011;38816;51.142;-0.974;2023-07-30T07:18:47;88.65;;;82.40;;
51438;SDS011;38816;51.142;-0.974;2023-07-30T07:21:14;99.25;;;92.22;;
51438;SDS011;38816;51.142;-0.974;2023-07-30T07:23:39;95.22;;;88.47;;
51438;SDS011;38816;51.142;-0.974;2023-07-30T07:26:05;102.70;;;95.30;;
51438;SDS011;38816;51.142;-0.974;2023-07-30T07:28:31;93.18;;;86.25;;
51438;SDS011;38816;51.142;-0.974;2023-07-30T07:30:56;97.50;;;90.55;;
51438;SDS011;38816;51.142;-0.974;2023-07-30T07:33:22;109.07;;;101.30;;
51438;SDS011;38816;51.142;-0.974;2023-07-30T07:35:47;104.30;;;96.82;;
51438;SDS011;38816;51.142;-0.974;2023-07-30T07:38:13;94.85;;;88.28;;
51438;SDS011;38816;51.142;-0.974;2023-07-30T07:40:39;101.88;;;94.57;;
51438;SDS011;38816;51.142;-0.974;2023-07-30T07:43:06;95.22;;;88.15;;
51438;SDS011;38816;51.142;-0.974;2023-07-30T07:45:32;113.70;;;105.90;;
51438;SDS011;38816;51.142;-0.974;2023-07-30T07:47:58;111.97;;;104.32;;
51438;SDS011;38816;51.142;-0.974;2023-07-30T07:50:23;97.40;;;90.47;;
51438;SDS011;38816;51.142;-0.974;2023-07-30T07:52:49;125.90;;;116.35;;
51438;SDS011;38816;51.142;-0.974;2023-07-30T07:55:14;124.85;;;116.30;;
51438;SDS011;38816;51.142;-0.974;2023-07-30T07:57:40;124.40;;;115.55;;
51438;SDS011;38816;51.142;-0.974;2023-07-30T08:00:06;137.75;;;128.52;;
51438;SDS011;38816;51.142;-0.974;2023-07-30T08:02:32;125.65;;;117.22;;
51438;SDS011;38816;51.142;-0.974;2023-07-30T08:04:57;124.95;;;116.45;;
51438;SDS011;38816;51.142;-0.974;2023-07-30T08:07:23;124.57;;;116.28;;
51438;SDS011;38816;51.142;-0.974;2023-07-30T08:09:48;130.35;;;121.40;;
51438;SDS011;38816;51.142;-0.974;2023-07-30T08:12:13;128.88;;;119.82;;
51438;SDS011;38816;51.142;-0.974;2023-07-30T08:14:39;143.23;;;133.27;;
51438;SDS011;38816;51.142;-0.974;2023-07-30T08:17:04;139.02;;;129.27;;
51438;SDS011;38816;51.142;-0.974;2023-07-30T08:19:30;137.02;;;127.65;;
51438;SDS011;38816;51.142;-0.974;2023-07-30T08:21:55;117.40;;;109.30;;
51438;SDS011;38816;51.142;-0.974;2023-07-30T08:24:22;130.98;;;121.68;;
51438;SDS011;38816;51.142;-0.974;2023-07-30T08:26:47;122.05;;;113.57;;
51438;SDS011;38816;51.142;-0.974;2023-07-30T08:29:13;131.55;;;122.65;;
51438;SDS011;38816;51.142;-0.974;2023-07-30T08:31:39;152.93;;;142.35;;
51438;SDS011;38816;51.142;-0.974;2023-07-30T08:34:05;136.80;;;127.35;;
51438;SDS011;38816;51.142;-0.974;2023-07-30T08:36:30;141.02;;;131.00;;
51438;SDS011;38816;51.142;-0.974;2023-07-30T08:38:56;149.02;;;138.75;;
51438;SDS011;38816;51.142;-0.974;2023-07-30T08:41:22;139.73;;;129.93;;
51438;SDS011;38816;51.142;-0.974;2023-07-30T08:43:48;155.15;;;144.35;;
51438;SDS011;38816;51.142;-0.974;2023-07-30T08:46:14;146.85;;;136.93;;
51438;SDS011;38816;51.142;-0.974;2023-07-30T08:48:41;149.48;;;138.80;;
51438;SDS011;38816;51.142;-0.974;2023-07-30T08:51:06;144.48;;;134.50;;
51438;SDS011;38816;51.142;-0.974;2023-07-30T08:53:31;161.07;;;150.00;;
51438;SDS011;38816;51.142;-0.974;2023-07-30T08:55:57;148.38;;;137.50;;
51438;SDS011;38816;51.142;-0.974;2023-07-30T08:58:25;149.68;;;139.35;;
51438;SDS011;38816;51.142;-0.974;2023-07-30T09:00:53;149.18;;;138.82;;
51438;SDS011;38816;51.142;-0.974;2023-07-30T09:03:20;147.52;;;137.27;;
51438;SDS011;38816;51.142;-0.974;2023-07-30T09:05:49;172.50;;;160.88;;
51438;SDS011;38816;51.142;-0.974;2023-07-30T09:08:14;178.15;;;166.05;;
51438;SDS011;38816;51.142;-0.974;2023-07-30T09:10:41;175.70;;;163.55;;
51438;SDS011;38816;51.142;-0.974;2023-07-30T09:13:06;156.32;;;145.50;;
51438;SDS011;38816;51.142;-0.974;2023-07-30T09:15:33;151.48;;;141.02;;
51438;SDS011;38816;51.142;-0.974;2023-07-30T09:18:02;148.68;;;138.27;;
51438;SDS011;38816;51.142;-0.974;2023-07-30T09:20:30;134.82;;;125.32;;
51438;SDS011;38816;51.142;-0.974;2023-07-30T09:23:02;137.10;;;127.32;;
51438;SDS011;38816;51.142;-0.974;2023-07-30T09:25:28;147.30;;;137.13;;
51438;SDS011;38816;51.142;-0.974;2023-07-30T09:27:53;144.82;;;134.75;;
51438;SDS011;38816;51.142;-0.974;2023-07-30T09:30:25;172.70;;;161.05;;
51438;SDS011;38816;51.142;-0.974;2023-07-30T09:32:52;151.95;;;141.68;;
51438;SDS011;38816;51.142;-0.974;2023-07-30T09:35:19;152.55;;;142.13;;
51438;SDS011;38816;51.142;-0.974;2023-07-30T09:37:46;183.57;;;171.38;;
51438;SDS011;38816;51.142;-0.974;2023-07-30T09:40:12;163.15;;;152.05;;
51438;SDS011;38816;51.142;-0.974;2023-07-30T09:42:42;173.88;;;162.25;;
51438;SDS011;38816;51.142;-0.974;2023-07-30T09:45:22;153.93;;;143.50;;
51438;SDS011;38816;51.142;-0.974;2023-07-30T09:47:49;135.80;;;126.10;;
51438;SDS011;38816;51.142;-0.974;2023-07-30T09:50:16;146.18;;;136.23;;
51438;SDS011;38816;51.142;-0.974;2023-07-30T09:52:42;144.57;;;134.88;;
51438;SDS011;38816;51.142;-0.974;2023-07-30T09:55:09;135.60;;;126.57;;
51438;SDS011;38816;51.142;-0.974;2023-07-30T09:57:36;131.90;;;123.15;;
51438;SDS011;38816;51.142;-0.974;2023-07-30T10:00:02;132.45;;;123.45;;
51438;SDS011;38816;51.142;-0.974;2023-07-30T10:02:29;127.00;;;118.43;;
51438;SDS011;38816;51.142;-0.974;2023-07-30T10:04:59;108.00;;;100.72;;
51438;SDS011;38816;51.142;-0.974;2023-07-30T10:07:26;104.13;;;97.20;;
51438;SDS011;38816;51.142;-0.974;2023-07-30T10:09:54;84.63;;;79.03;;
51438;SDS011;38816;51.142;-0.974;2023-07-30T10:12:27;84.32;;;78.68;;
51438;SDS011;38816;51.142;-0.974;2023-07-30T10:14:56;80.57;;;75.18;;
51438;SDS011;38816;51.142;-0.974;2023-07-30T10:17:22;75.78;;;70.68;;
51438;SDS011;38816;51.142;-0.974;2023-07-30T10:19:47;81.40;;;76.00;;
51438;SDS011;38816;51.142;-0.974;2023-07-30T10:24:55;69.55;;;64.90;;
51438;SDS011;38816;51.142;-0.974;2023-07-30T10:27:25;79.27;;;73.90;;
51438;SDS011;38816;51.142;-0.974;2023-07-30T10:30:14;82.25;;;76.88;;
51438;SDS011;38816;51.142;-0.974;2023-07-30T10:32:41;78.55;;;73.30;;
51438;SDS011;38816;51.142;-0.974;2023-07-30T10:41:07;74.63;;;69.60;;
51438;SDS011;38816;51.142;-0.974;2023-07-30T10:43:42;75.32;;;70.22;;
51438;SDS011;38816;51.142;-0.974;2023-07-30T10:46:11;73.65;;;68.78;;
51438;SDS011;38816;51.142;-0.974;2023-07-30T10:48:38;72.80;;;68.00;;
51438;SDS011;38816;51.142;-0.974;2023-07-30T10:51:06;71.78;;;66.65;;
51438;SDS011;38816;51.142;-0.974;2023-07-30T10:53:34;70.05;;;65.45;;
51438;SDS011;38816;51.142;-0.974;2023-07-30T10:56:04;76.75;;;71.50;;
51438;SDS011;38816;51.142;-0.974;2023-07-30T10:58:31;78.28;;;73.05;;
51438;SDS011;38816;51.142;-0.974;2023-07-30T11:00:59;75.00;;;69.55;;
51438;SDS011;38816;51.142;-0.974;2023-07-30T11:03:27;77.07;;;71.97;;
51438;SDS011;38816;51.142;-0.974;2023-07-30T11:05:53;76.28;;;71.20;;
51438;SDS011;38816;51.142;-0.974;2023-07-30T11:08:21;80.18;;;74.90;;
51438;SDS011;38816;51.142;-0.974;2023-07-30T11:10:57;69.97;;;65.18;;
51438;SDS011;38816;51.142;-0.974;2023-07-30T11:13:22;76.32;;;70.90;;
51438;SDS011;38816;51.142;-0.974;2023-07-30T11:15:48;66.03;;;61.55;;
51438;SDS011;38816;51.142;-0.974;2023-07-30T11:18:13;68.35;;;63.78;;
51438;SDS011;38816;51.142;-0.974;2023-07-30T11:20:39;57.88;;;53.95;;
51438;SDS011;38816;51.142;-0.974;2023-07-30T11:23:26;68.13;;;63.53;;
51438;SDS011;38816;51.142;-0.974;2023-07-30T11:25:51;58.33;;;54.42;;
51438;SDS011;38816;51.142;-0.974;2023-07-30T11:30:58;57.00;;;53.20;;
51438;SDS011;38816;51.142;-0.974;2023-07-30T11:33:25;60.47;;;56.13;;
51438;SDS011;38816;51.142;-0.974;2023-07-30T11:35:52;62.13;;;57.83;;
51438;SDS011;38816;51.142;-0.974;2023-07-30T11:38:18;51.75;;;48.25;;
51438;SDS011;38816;51.142;-0.974;2023-07-30T11:40:45;59.33;;;55.22;;
51438;SDS011;38816;51.142;-0.974;2023-07-30T11:43:12;60.55;;;56.35;;
51438;SDS011;38816;51.142;-0.974;2023-07-30T11:45:38;50.78;;;47.33;;
51438;SDS011;38816;51.142;-0.974;2023-07-30T11:48:07;53.75;;;50.13;;
51438;SDS011;38816;51.142;-0.974;2023-07-30T11:50:44;48.90;;;45.53;;
51438;SDS011;38816;51.142;-0.974;2023-07-30T11:53:13;48.78;;;45.45;;
51438;SDS011;38816;51.142;-0.974;2023-07-30T11:55:40;54.08;;;50.47;;
51438;SDS011;38816;51.142;-0.974;2023-07-30T11:58:07;50.72;;;47.15;;
51438;SDS011;38816;51.142;-0.974;2023-07-30T12:00:34;58.92;;;54.92;;
51438;SDS011;38816;51.142;-0.974;2023-07-30T12:03:04;57.47;;;53.67;;
51438;SDS011;38816;51.142;-0.974;2023-07-30T12:05:34;56.55;;;52.75;;
51438;SDS011;38816;51.142;-0.974;2023-07-30T12:08:01;65.07;;;60.60;;
51438;SDS011;38816;51.142;-0.974;2023-07-30T12:10:44;57.75;;;53.88;;
51438;SDS011;38816;51.142;-0.974;2023-07-30T12:13:16;69.35;;;64.68;;
51438;SDS011;38816;51.142;-0.974;2023-07-30T12:15:43;74.32;;;69.25;;
51438;SDS011;38816;51.142;-0.974;2023-07-30T12:18:19;76.05;;;70.95;;
51438;SDS011;38816;51.142;-0.974;2023-07-30T12:20:46;66.70;;;62.28;;
51438;SDS011;38816;51.142;-0.974;2023-07-30T12:23:12;73.68;;;68.88;;
51438;SDS011;38816;51.142;-0.974;2023-07-30T12:25:38;71.38;;;66.45;;
51438;SDS011;38816;51.142;-0.974;2023-07-30T12:28:03;79.00;;;73.75;;
51438;SDS011;38816;51.142;-0.974;2023-07-30T12:30:29;83.07;;;77.60;;
51438;SDS011;38816;51.142;-0.974;2023-07-30T12:32:55;85.72;;;80.07;;
51438;SDS011;38816;51.142;-0.974;2023-07-30T12:35:21;81.50;;;76.00;;
51438;SDS011;38816;51.142;-0.974;2023-07-30T12:37:47;92.72;;;86.47;;
51438;SDS011;38816;51.142;-0.974;2023-07-30T12:40:12;89.47;;;83.28;;
51438;SDS011;38816;51.142;-0.974;2023-07-30T12:42:38;98.10;;;91.80;;
51438;SDS011;38816;51.142;-0.974;2023-07-30T12:45:03;72.60;;;67.70;;
51438;SDS011;38816;51.142;-0.974;2023-07-30T12:47:29;89.82;;;84.00;;
51438;SDS011;38816;51.142;-0.974;2023-07-30T12:49:55;84.70;;;79.15;;
51438;SDS011;38816;51.142;-0.974;2023-07-30T12:52:20;80.22;;;75.03;;
51438;SDS011;38816;51.142;-0.974;2023-07-30T12:54:46;85.22;;;79.65;;
51438;SDS011;38816;51.142;-0.974;2023-07-30T12:57:11;75.65;;;70.57;;
51438;SDS011;38816;51.142;-0.974;2023-07-30T12:59:37;73.07;;;68.38;;
51438;SDS011;38816;51.142;-0.974;2023-07-30T13:02:03;64.65;;;60.45;;
51438;SDS011;38816;51.142;-0.974;2023-07-30T13:04:28;61.15;;;57.15;;
51438;SDS011;38816;51.142;-0.974;2023-07-30T13:06:54;53.58;;;50.08;;
51438;SDS011;38816;51.142;-0.974;2023-07-30T13:09:22;51.40;;;48.00;;
51438;SDS011;38816;51.142;-0.974;2023-07-30T13:11:47;52.53;;;48.97;;
51438;SDS011;38816;51.142;-0.974;2023-07-30T13:14:13;45.67;;;42.55;;
51438;SDS011;38816;51.142;-0.974;2023-07-30T13:16:38;54.95;;;51.40;;
51438;SDS011;38816;51.142;-0.974;2023-07-30T13:19:04;57.95;;;54.05;;
51438;SDS011;38816;51.142;-0.974;2023-07-30T13:21:29;57.35;;;53.58;;
51438;SDS011;38816;51.142;-0.974;2023-07-30T13:23:55;54.80;;;51.15;;
51438;SDS011;38816;51.142;-0.974;2023-07-30T13:26:20;67.35;;;62.67;;
51438;SDS011;38816;51.142;-0.974;2023-07-30T13:28:46;57.80;;;53.97;;
51438;SDS011;38816;51.142;-0.974;2023-07-30T13:31:14;61.35;;;57.13;;
51438;SDS011;38816;51.142;-0.974;2023-07-30T13:33:40;57.83;;;53.92;;
51438;SDS011;38816;51.142;-0.974;2023-07-30T13:36:05;53.63;;;49.95;;
51438;SDS011;38816;51.142;-0.974;2023-07-30T13:38:31;54.03;;;50.40;;
51438;SDS011;38816;51.142;-0.974;2023-07-30T13:40:56;56.80;;;52.70;;
51438;SDS011;38816;51.142;-0.974;2023-07-30T13:43:22;52.60;;;49.08;;
51438;SDS011;38816;51.142;-0.974;2023-07-30T13:45:48;59.05;;;54.70;;
51438;SDS011;38816;51.142;-0.974;2023-07-30T13:48:17;59.65;;;55.58;;
51438;SDS011;38816;51.142;-0.974;2023-07-30T13:50:43;69.72;;;65.00;;
51438;SDS011;38816;51.142;-0.974;2023-07-30T13:53:09;58.17;;;54.20;;
51438;SDS011;38816;51.142;-0.974;2023-07-30T13:55:34;57.78;;;53.70;;
51438;SDS011;38816;51.142;-0.974;2023-07-30T13:58:00;73.65;;;68.60;;
51438;SDS011;38816;51.142;-0.974;2023-07-30T14:00:25;56.83;;;52.80;;
51438;SDS011;38816;51.142;-0.974;2023-07-30T14:02:51;53.22;;;49.45;;
51438;SDS011;38816;51.142;-0.974;2023-07-30T14:05:17;50.60;;;47.10;;
51438;SDS011;38816;51.142;-0.974;2023-07-30T14:07:43;65.00;;;60.45;;
51438;SDS011;38816;51.142;-0.974;2023-07-30T14:10:10;47.72;;;44.10;;